Route Details

Aircraft Information
Group: Large Widebodies
Types: B744, MD11
Route Data
Distance: 3631nm
Duration: 8h 09m
Origin METAR: SBGL 160000Z 14005KT CAVOK 22/12 Q1013
Dest. METAR: KMIA 152353Z 00000KT 10SM FEW025 FEW110 BKN200 28/25 A2991 RMK AO2 SLP129 60081 T02780250 10333 20244 56009
Freight Data
(for Aug 16, 2022)
Load Factor:
26%
Manifested Cargo: 56,618lbs
Financial History
Total Freight: 279,154lbs
Average Load: 0lbs/flt
Fuel Used: 424,958lbs
Avg. Fuel Used: 0lbs/flt
Fuel Expense: $216,729
Avg. Fuel Expense: $0
Avg. Fuel Cost: $0/lbs
Total Gross Income: $870,961
Pilot Pay: $478
Total Expenses: $179,163
Total Revenue: $468,378
Average Revenue: $0

Capitol Logistics 779




SBGL
Rio Galeão – Tom Jobim International Airport
Rio De Janeiro, BR
KMIA
Miami International Airport
Miami, US